Currie, Nevada
Current Conditions -  °F | °C
As of 10:53 AM on Sunday 23 Nov 2014 (Local Time) from KELY Reporting Station
Clear Clear  
Wind Chill: 30°   Ceiling: Unl
Heat Index: 35°   Visibility: 10mi
Dew Point: 27°   Wind: 6mph
Humidity: 72%   Direction: 10°N
Pressure: 30.31"   Gusts: NA
Location:  39.5572°N, 115.033°W
Report Text: KELY 231853Z AUTO 01005KT 10SM CLR 02/M03 A3031 RMK AO2 SLP265 T00171028 $
Loading
Personal Weather Stations






























Interactive Weather Map New forecast layout! Learn more

10-Day Weather Forecast

Advertisements
Track Severe Weather on mobile